createdAt,value
2017-10-24T00:00:11.649Z,4.83
2017-10-24T00:02:39.934Z,6.40
2017-10-24T00:05:07.488Z,3.83
2017-10-24T00:07:35.046Z,3.60
2017-10-24T00:10:03.362Z,3.10
2017-10-24T00:12:30.865Z,3.50
2017-10-24T00:14:58.444Z,3.47
2017-10-24T00:17:25.968Z,3.43
2017-10-24T00:19:54.442Z,5.70
2017-10-24T00:22:21.975Z,6.20
2017-10-24T00:24:50.467Z,4.20
2017-10-24T00:27:18.732Z,3.50
2017-10-24T00:29:46.305Z,8.60
2017-10-24T00:32:13.797Z,3.50
2017-10-24T00:34:42.827Z,3.73
2017-10-24T00:37:11.244Z,4.47
2017-10-24T00:39:38.780Z,5.33
2017-10-24T00:42:06.284Z,4.03
2017-10-24T00:44:33.785Z,3.80
2017-10-24T00:47:01.308Z,3.57
2017-10-24T00:49:28.854Z,3.87
2017-10-24T00:51:56.352Z,3.17
2017-10-24T00:54:24.676Z,3.20
2017-10-24T00:56:52.208Z,3.60
2017-10-24T00:59:19.736Z,6.17
2017-10-24T01:01:48.158Z,3.10
2017-10-24T01:04:15.686Z,3.83
2017-10-24T01:06:44.551Z,5.17
2017-10-24T01:09:12.068Z,2.83
2017-10-24T01:11:40.561Z,3.33
2017-10-24T01:14:08.820Z,6.43
2017-10-24T01:16:36.341Z,4.80
2017-10-24T01:19:04.708Z,4.20
2017-10-24T01:21:32.999Z,3.70
2017-10-24T01:24:00.587Z,4.10
2017-10-24T01:26:28.131Z,3.93
2017-10-24T01:28:57.124Z,3.90
2017-10-24T01:31:24.692Z,4.40
2017-10-24T01:33:52.216Z,4.13
2017-10-24T01:36:19.776Z,3.70
2017-10-24T01:38:47.343Z,4.50
2017-10-24T01:41:14.917Z,4.63
2017-10-24T01:43:42.467Z,3.93
2017-10-24T01:46:10.001Z,5.30
2017-10-24T01:48:38.249Z,4.37
2017-10-24T01:51:05.841Z,4.57
2017-10-24T01:53:34.500Z,4.33
2017-10-24T01:56:02.133Z,5.50
2017-10-24T01:58:29.776Z,4.40
2017-10-24T02:00:58.337Z,3.37
2017-10-24T02:03:25.905Z,4.27
2017-10-24T02:05:54.237Z,3.57
2017-10-24T02:08:21.763Z,4.27
2017-10-24T02:10:50.089Z,3.57
2017-10-24T02:13:17.645Z,3.17
2017-10-24T02:15:45.171Z,4.00
2017-10-24T02:18:12.745Z,3.93
2017-10-24T02:20:40.302Z,5.70
2017-10-24T02:23:07.814Z,4.87
2017-10-24T02:25:35.374Z,3.73
2017-10-24T02:28:02.904Z,4.57
2017-10-24T02:30:30.442Z,3.93
2017-10-24T02:32:57.984Z,7.03
2017-10-24T02:35:25.580Z,4.03
2017-10-24T02:37:53.097Z,3.50
2017-10-24T02:40:20.636Z,4.10
2017-10-24T02:42:50.169Z,3.60
2017-10-24T02:45:17.701Z,3.90
2017-10-24T02:47:45.201Z,3.40
2017-10-24T02:50:13.614Z,7.73
2017-10-24T02:52:41.116Z,4.13
2017-10-24T02:55:08.729Z,4.23
2017-10-24T02:57:36.268Z,4.10
2017-10-24T03:00:04.140Z,3.93
2017-10-24T03:02:31.629Z,3.63
2017-10-24T03:04:59.159Z,3.43
2017-10-24T03:07:26.651Z,4.70
2017-10-24T03:09:54.975Z,4.40
2017-10-24T03:12:22.528Z,4.50
2017-10-24T03:14:50.076Z,5.10
2017-10-24T03:17:17.605Z,4.30
2017-10-24T03:19:45.883Z,4.83
2017-10-24T03:22:13.448Z,3.17
2017-10-24T03:24:41.726Z,3.90
2017-10-24T03:27:10.023Z,6.90
2017-10-24T03:29:37.529Z,3.83
2017-10-24T03:32:05.181Z,5.20
2017-10-24T03:34:32.675Z,3.37
2017-10-24T03:37:01.090Z,7.97
2017-10-24T03:39:28.612Z,3.70
2017-10-24T03:41:56.165Z,3.50
2017-10-24T03:44:24.478Z,4.83
2017-10-24T03:46:52.306Z,4.47
2017-10-24T03:49:20.976Z,3.40
2017-10-24T03:51:48.509Z,4.80
2017-10-24T03:54:16.078Z,4.77
2017-10-24T03:56:44.348Z,7.53
2017-10-24T03:59:11.939Z,4.40
2017-10-24T04:01:39.456Z,3.90
2017-10-24T04:04:07.009Z,4.50
2017-10-24T04:06:34.528Z,4.07
2017-10-24T04:09:02.096Z,4.23
2017-10-24T04:11:29.697Z,6.30
2017-10-24T04:13:58.411Z,7.60
2017-10-24T04:16:26.323Z,5.20
2017-10-24T04:18:54.540Z,4.20
2017-10-24T04:21:22.076Z,3.97
2017-10-24T04:23:49.601Z,6.00
2017-10-24T04:26:17.129Z,3.70
2017-10-24T04:28:44.751Z,10.47
2017-10-24T04:31:12.263Z,9.50
2017-10-24T04:33:39.888Z,7.60
2017-10-24T04:36:07.428Z,5.03
2017-10-24T04:38:34.927Z,7.37
2017-10-24T04:41:03.296Z,6.73
2017-10-24T04:43:30.833Z,8.77
2017-10-24T04:45:58.392Z,7.00
2017-10-24T04:48:27.097Z,6.00
2017-10-24T04:50:54.606Z,5.83
2017-10-24T04:53:22.149Z,9.33
2017-10-24T04:55:49.710Z,7.43
2017-10-24T04:58:17.973Z,4.83
2017-10-24T05:00:45.489Z,3.40
2017-10-24T05:03:13.984Z,5.60
2017-10-24T05:05:41.507Z,4.30
2017-10-24T05:08:09.109Z,5.10
2017-10-24T05:10:36.649Z,5.73
2017-10-24T05:13:04.161Z,6.53
2017-10-24T05:15:31.672Z,10.90
2017-10-24T05:17:59.289Z,6.40
2017-10-24T05:20:27.645Z,5.67
2017-10-24T05:22:56.013Z,6.20
2017-10-24T05:25:23.532Z,5.50
2017-10-24T05:27:51.035Z,6.90
2017-10-24T05:30:18.573Z,9.30
2017-10-24T05:32:46.117Z,5.80
2017-10-24T05:35:13.693Z,6.37
2017-10-24T05:37:41.226Z,6.03
2017-10-24T05:40:08.748Z,7.10
2017-10-24T05:42:36.251Z,6.60
2017-10-24T05:45:03.808Z,8.13
2017-10-24T05:47:31.310Z,5.40
2017-10-24T05:49:59.171Z,5.30
2017-10-24T05:52:26.700Z,6.43
2017-10-24T05:54:54.216Z,14.30
2017-10-24T05:57:22.649Z,10.43
2017-10-24T05:59:50.158Z,8.50
2017-10-24T06:02:17.685Z,9.00
2017-10-24T06:04:45.614Z,7.27
2017-10-24T06:07:13.147Z,6.97
2017-10-24T06:09:40.657Z,5.10
2017-10-24T06:12:08.193Z,7.67
2017-10-24T06:14:35.702Z,8.67
2017-10-24T06:17:04.024Z,6.70
2017-10-24T06:19:31.580Z,6.40
2017-10-24T06:21:59.127Z,9.57
2017-10-24T06:24:26.649Z,9.87
2017-10-24T06:26:54.836Z,7.20
2017-10-24T06:29:22.367Z,7.63
2017-10-24T06:31:49.948Z,9.37
2017-10-24T06:34:18.243Z,9.93
2017-10-24T06:36:46.566Z,6.60
2017-10-24T06:39:14.948Z,8.40
2017-10-24T06:41:42.451Z,6.90
2017-10-24T06:44:10.873Z,7.90
2017-10-24T06:46:38.381Z,7.80
2017-10-24T06:49:05.985Z,12.43
2017-10-24T06:51:34.046Z,7.23
2017-10-24T06:54:01.551Z,6.40
2017-10-24T06:56:29.080Z,8.67
2017-10-24T06:58:57.429Z,7.17
2017-10-24T07:01:24.932Z,5.33
2017-10-24T07:03:52.589Z,8.00
2017-10-24T07:06:20.133Z,6.90
2017-10-24T07:08:47.711Z,5.93
2017-10-24T07:11:15.244Z,5.60
2017-10-24T07:13:42.813Z,6.60
2017-10-24T07:16:10.916Z,4.93
2017-10-24T07:18:38.460Z,6.57
2017-10-24T07:21:06.899Z,6.63
2017-10-24T07:23:34.411Z,6.13
2017-10-24T07:26:01.983Z,5.20
2017-10-24T07:28:29.476Z,6.57
2017-10-24T07:30:57.749Z,6.50
2017-10-24T07:33:25.305Z,6.20
2017-10-24T07:35:53.428Z,11.93
2017-10-24T07:41:15.091Z,7.83
2017-10-24T07:43:42.679Z,7.47
2017-10-24T07:46:10.222Z,8.57
2017-10-24T07:48:38.566Z,6.40
2017-10-24T07:51:06.113Z,6.87
2017-10-24T07:53:34.112Z,6.90
2017-10-24T07:56:01.647Z,6.57
2017-10-24T07:58:29.279Z,6.27
2017-10-24T08:00:56.843Z,10.13
2017-10-24T08:03:24.656Z,6.00
2017-10-24T08:05:52.601Z,5.93
2017-10-24T08:08:20.107Z,5.90
2017-10-24T08:10:48.381Z,5.93
2017-10-24T08:13:16.678Z,6.00
2017-10-24T08:15:44.332Z,7.13
2017-10-24T08:18:11.856Z,5.00
2017-10-24T08:20:39.409Z,4.07
2017-10-24T08:23:06.951Z,4.23
2017-10-24T08:25:34.490Z,4.60
2017-10-24T08:28:02.065Z,5.03
2017-10-24T08:30:30.577Z,5.90
2017-10-24T08:32:58.166Z,5.70
2017-10-24T08:35:25.669Z,4.37
2017-10-24T08:37:53.192Z,4.30
2017-10-24T08:40:20.741Z,5.43
2017-10-24T08:42:48.284Z,8.93
2017-10-24T08:45:15.836Z,4.63
2017-10-24T08:47:43.332Z,4.50
2017-10-24T08:50:10.886Z,4.93
2017-10-24T08:52:38.460Z,5.07
2017-10-24T08:55:06.041Z,5.47
2017-10-24T08:57:34.119Z,5.50
2017-10-24T09:00:01.712Z,4.77
2017-10-24T09:02:29.361Z,5.40
2017-10-24T09:04:56.908Z,3.80
2017-10-24T09:07:27.240Z,3.13
2017-10-24T09:09:55.428Z,7.23
2017-10-24T09:12:28.873Z,3.33
2017-10-24T09:14:56.468Z,4.50
2017-10-24T09:17:43.852Z,3.23
2017-10-24T09:20:12.423Z,2.50
2017-10-24T09:22:39.978Z,4.53
2017-10-24T09:25:07.644Z,2.97
2017-10-24T09:27:35.231Z,5.97
2017-10-24T09:30:02.788Z,2.37
2017-10-24T09:32:47.153Z,2.00
2017-10-24T09:35:15.577Z,3.53
2017-10-24T09:37:43.228Z,1.60
2017-10-24T09:40:10.854Z,1.77
2017-10-24T09:42:38.496Z,2.10
2017-10-24T09:45:06.017Z,3.33
2017-10-24T09:47:34.898Z,1.27
2017-10-24T09:50:03.230Z,1.83
2017-10-24T09:52:31.318Z,2.30
2017-10-24T09:54:58.839Z,2.47
2017-10-24T09:57:26.428Z,2.73
2017-10-24T09:59:54.054Z,1.73
2017-10-24T10:02:21.692Z,2.33
2017-10-24T10:04:50.051Z,2.60
2017-10-24T10:07:17.592Z,3.13
2017-10-24T10:09:45.181Z,1.83
2017-10-24T10:12:12.751Z,1.23
2017-10-24T10:14:41.039Z,1.73
2017-10-24T10:17:08.561Z,1.33
2017-10-24T10:19:36.183Z,1.00
2017-10-24T10:22:06.921Z,1.50
2017-10-24T10:24:36.513Z,1.47
2017-10-24T10:27:04.062Z,1.40
2017-10-24T10:29:32.582Z,2.00
2017-10-24T10:32:00.177Z,1.40
2017-10-24T10:34:27.704Z,1.10
2017-10-24T10:36:55.216Z,1.90
2017-10-24T10:39:22.768Z,1.67
2017-10-24T10:41:51.736Z,3.83
2017-10-24T10:44:19.283Z,1.70
2017-10-24T10:46:46.864Z,1.43
2017-10-24T10:49:14.369Z,1.03
2017-10-24T10:51:43.178Z,2.03
2017-10-24T10:54:10.719Z,1.43
2017-10-24T10:56:38.238Z,0.83
2017-10-24T10:59:05.757Z,2.30
2017-10-24T11:01:34.621Z,3.00
2017-10-24T11:04:02.152Z,1.83
2017-10-24T11:06:29.697Z,0.80
2017-10-24T11:08:58.052Z,1.00
2017-10-24T11:11:25.581Z,1.53
2017-10-24T11:13:53.696Z,1.10
2017-10-24T11:16:21.228Z,1.00
2017-10-24T11:18:49.357Z,1.00
2017-10-24T11:21:17.516Z,1.17
2017-10-24T11:23:45.793Z,1.30
2017-10-24T11:26:13.366Z,1.23
2017-10-24T11:28:41.939Z,1.13
2017-10-24T11:31:09.508Z,0.80
2017-10-24T11:33:37.254Z,3.70
2017-10-24T11:36:04.832Z,1.17
2017-10-24T11:38:34.398Z,1.00
2017-10-24T11:41:02.041Z,1.10
2017-10-24T11:43:29.561Z,2.63
2017-10-24T11:45:57.169Z,1.40
2017-10-24T11:48:24.715Z,2.57
2017-10-24T11:50:52.278Z,1.83
2017-10-24T11:53:19.865Z,1.20
2017-10-24T11:55:47.389Z,2.07
2017-10-24T11:58:15.406Z,2.40
2017-10-24T12:00:45.206Z,1.10
2017-10-24T12:03:34.136Z,1.53
2017-10-24T12:06:02.543Z,1.37
2017-10-24T12:08:30.374Z,2.60
2017-10-24T12:10:57.896Z,1.10
2017-10-24T12:13:26.164Z,0.90
2017-10-24T12:15:53.779Z,1.50
2017-10-24T12:18:21.276Z,0.80
2017-10-24T12:20:48.844Z,0.83
2017-10-24T12:23:17.205Z,0.97
2017-10-24T12:25:44.764Z,2.60
2017-10-24T12:28:12.276Z,1.80
2017-10-24T12:30:40.611Z,0.83
2017-10-24T12:33:08.219Z,1.00
2017-10-24T12:35:35.726Z,0.97
2017-10-24T12:38:03.309Z,1.20
2017-10-24T12:40:32.399Z,1.47
2017-10-24T12:43:00.803Z,0.97
2017-10-24T12:45:28.340Z,0.60
2017-10-24T12:47:56.679Z,0.70
2017-10-24T12:50:24.861Z,0.60
2017-10-24T12:52:52.432Z,1.13
2017-10-24T12:55:19.958Z,0.80
2017-10-24T12:57:47.518Z,1.53
2017-10-24T13:00:16.206Z,0.90
2017-10-24T13:02:43.710Z,0.70
2017-10-24T13:08:08.037Z,3.80
2017-10-24T13:10:35.584Z,0.73
2017-10-24T13:13:05.063Z,1.70
2017-10-24T13:15:32.558Z,0.90
2017-10-24T13:18:00.104Z,5.87
2017-10-24T13:20:28.199Z,0.60
2017-10-24T13:22:55.700Z,0.70
2017-10-24T13:25:23.247Z,0.90
2017-10-24T13:27:50.778Z,0.90
2017-10-24T13:30:19.079Z,0.80
2017-10-24T13:32:46.714Z,0.70
2017-10-24T13:35:14.745Z,1.33
2017-10-24T13:37:43.267Z,2.47
2017-10-24T13:40:10.774Z,0.80
2017-10-24T13:42:38.320Z,1.00
2017-10-24T13:45:06.770Z,1.90
2017-10-24T13:47:34.300Z,2.57
2017-10-24T13:50:02.570Z,1.10
2017-10-24T13:52:30.066Z,0.73
2017-10-24T13:54:57.639Z,2.00
2017-10-24T13:57:25.175Z,2.93
2017-10-24T13:59:52.683Z,0.83
2017-10-24T14:02:20.175Z,2.33
2017-10-24T14:04:53.353Z,2.07
2017-10-24T14:07:27.206Z,1.97
2017-10-24T14:10:00.386Z,1.13
2017-10-24T14:12:27.902Z,1.00
2017-10-24T14:14:56.177Z,0.90
2017-10-24T14:17:23.731Z,3.03
2017-10-24T14:19:51.239Z,1.10
2017-10-24T14:22:19.491Z,2.70
2017-10-24T14:24:47.032Z,0.90
2017-10-24T14:27:15.308Z,1.00
2017-10-24T14:29:42.817Z,1.87
2017-10-24T14:32:10.674Z,1.17
2017-10-24T14:34:38.165Z,0.80
2017-10-24T14:37:06.649Z,2.83
2017-10-24T14:39:34.173Z,1.33
2017-10-24T14:42:01.660Z,1.03
2017-10-24T14:44:29.773Z,1.33
2017-10-24T14:46:58.036Z,0.80
2017-10-24T14:49:27.081Z,1.10
2017-10-24T14:51:54.599Z,1.17
2017-10-24T14:54:23.791Z,0.87
2017-10-24T14:56:52.080Z,1.90
2017-10-24T14:59:19.591Z,1.57
2017-10-24T15:01:47.097Z,0.80
2017-10-24T15:04:14.612Z,2.30
2017-10-24T15:06:42.105Z,3.77
2017-10-24T15:09:10.426Z,2.53
2017-10-24T15:11:37.927Z,1.07
2017-10-24T15:14:06.245Z,1.40
2017-10-24T15:16:33.739Z,2.00
2017-10-24T15:19:01.261Z,2.90
2017-10-24T15:21:28.788Z,1.43
2017-10-24T15:23:56.286Z,0.53
2017-10-24T15:26:23.822Z,2.20
2017-10-24T15:28:51.330Z,1.47
2017-10-24T15:31:19.175Z,1.03
2017-10-24T15:33:46.680Z,1.50
2017-10-24T15:36:14.983Z,2.00
2017-10-24T15:38:42.512Z,1.23
2017-10-24T15:41:10.773Z,1.33
2017-10-24T15:43:38.561Z,1.50
2017-10-24T15:46:06.068Z,2.10
2017-10-24T15:48:33.609Z,2.30
2017-10-24T15:51:01.109Z,2.50
2017-10-24T15:53:28.700Z,4.47
2017-10-24T15:56:00.174Z,4.00
2017-10-24T15:58:27.683Z,3.43
2017-10-24T16:00:55.504Z,1.70
2017-10-24T16:03:23.269Z,1.60
2017-10-24T16:05:52.094Z,1.60
2017-10-24T16:08:26.517Z,1.77
2017-10-24T16:10:54.243Z,1.13
2017-10-24T16:13:22.148Z,1.57
2017-10-24T16:15:49.653Z,3.30
2017-10-24T16:18:17.185Z,1.60
2017-10-24T16:20:45.469Z,3.33
2017-10-24T16:23:13.063Z,1.70
2017-10-24T16:25:40.622Z,2.50
2017-10-24T16:28:08.168Z,1.60
2017-10-24T16:30:35.676Z,7.03
2017-10-24T16:33:03.180Z,2.63
2017-10-24T16:35:30.837Z,2.47
2017-10-24T16:37:58.410Z,2.93
2017-10-24T16:40:25.972Z,2.67
2017-10-24T16:42:53.487Z,5.10
2017-10-24T16:45:20.982Z,3.80
2017-10-24T16:47:48.564Z,7.60
2017-10-24T16:50:16.112Z,6.30
2017-10-24T16:52:43.610Z,2.43
2017-10-24T16:55:11.156Z,5.27
2017-10-24T16:57:39.519Z,3.80
2017-10-24T17:00:07.020Z,5.00
2017-10-24T17:02:34.568Z,3.27
2017-10-24T17:05:02.101Z,2.30
2017-10-24T17:07:29.648Z,5.20
2017-10-24T17:09:57.173Z,4.67
2017-10-24T17:12:25.444Z,2.67
2017-10-24T17:14:53.518Z,3.50
2017-10-24T17:17:21.616Z,5.70
2017-10-24T17:19:49.346Z,1.53
2017-10-24T17:22:17.658Z,1.83
2017-10-24T17:24:45.168Z,3.33
2017-10-24T17:27:12.707Z,3.83
2017-10-24T17:29:40.252Z,8.63
2017-10-24T17:32:07.797Z,3.57
2017-10-24T17:34:35.296Z,6.33
2017-10-24T17:37:02.844Z,7.73
2017-10-24T17:39:30.332Z,5.23
2017-10-24T17:41:58.597Z,6.87
2017-10-24T17:44:26.139Z,5.53
2017-10-24T17:46:53.685Z,5.60
2017-10-24T17:49:21.277Z,5.80
2017-10-24T17:51:48.898Z,7.17
2017-10-24T17:54:16.416Z,7.23
2017-10-24T17:56:43.993Z,5.83
2017-10-24T17:59:11.522Z,5.10
2017-10-24T18:01:39.796Z,5.13
2017-10-24T18:04:07.377Z,7.77
2017-10-24T18:06:35.640Z,7.57
2017-10-24T18:09:03.163Z,9.50
2017-10-24T18:11:30.703Z,7.47
2017-10-24T18:13:58.240Z,9.23
2017-10-24T18:16:25.768Z,6.83
2017-10-24T18:18:53.272Z,8.03
2017-10-24T18:21:20.821Z,13.80
2017-10-24T18:23:48.326Z,12.30
2017-10-24T18:26:15.890Z,11.03
2017-10-24T18:28:43.406Z,24.10
2017-10-24T18:31:11.032Z,20.40
2017-10-24T18:33:39.338Z,24.33
2017-10-24T18:36:06.843Z,11.83
2017-10-24T18:38:35.202Z,11.53
2017-10-24T18:41:02.745Z,16.70
2017-10-24T18:43:30.273Z,14.00
2017-10-24T18:45:58.418Z,13.33
2017-10-24T18:48:26.746Z,16.37
2017-10-24T18:50:54.276Z,12.13
2017-10-24T18:53:21.817Z,13.87
2017-10-24T18:55:49.324Z,14.73
2017-10-24T18:58:16.900Z,14.97
2017-10-24T19:00:44.480Z,11.47
2017-10-24T19:03:12.245Z,10.87
2017-10-24T19:05:39.864Z,13.57
2017-10-24T19:08:07.491Z,10.50
2017-10-24T19:10:35.048Z,9.80
2017-10-24T19:13:03.460Z,11.20
2017-10-24T19:15:30.990Z,12.90
2017-10-24T19:17:58.944Z,15.27
2017-10-24T19:20:26.454Z,13.57
2017-10-24T19:22:54.195Z,20.83
2017-10-24T19:25:21.742Z,17.97
2017-10-24T19:27:49.314Z,17.13
2017-10-24T19:30:17.269Z,15.83
2017-10-24T19:32:44.818Z,14.27
2017-10-24T19:35:12.345Z,10.73
2017-10-24T19:37:39.880Z,9.83
2017-10-24T19:40:08.172Z,11.27
2017-10-24T19:42:35.682Z,12.90
2017-10-24T19:45:03.232Z,8.23
2017-10-24T19:47:30.766Z,8.60
2017-10-24T19:49:58.291Z,9.57
2017-10-24T19:52:26.577Z,16.43
2017-10-24T19:54:54.117Z,12.87
2017-10-24T19:57:22.396Z,8.87
2017-10-24T19:59:49.944Z,12.80
2017-10-24T20:02:17.465Z,10.63
2017-10-24T20:04:44.980Z,8.17
2017-10-24T20:07:13.309Z,7.80
2017-10-24T20:09:40.838Z,7.50
2017-10-24T20:12:08.378Z,7.20
2017-10-24T20:14:35.950Z,9.50
2017-10-24T20:17:03.464Z,9.17
2017-10-24T20:19:30.984Z,9.63
2017-10-24T20:21:58.540Z,7.30
2017-10-24T20:24:26.068Z,7.13
2017-10-24T20:26:53.587Z,7.17
2017-10-24T20:29:21.193Z,22.47
2017-10-24T20:31:48.711Z,35.87
2017-10-24T20:34:16.272Z,19.13
2017-10-24T20:36:43.804Z,13.27
2017-10-24T20:39:11.417Z,14.17
2017-10-24T20:41:39.700Z,8.50
2017-10-24T20:44:07.237Z,8.40
2017-10-24T20:46:34.773Z,7.50
2017-10-24T20:49:02.277Z,6.80
2017-10-24T20:51:30.772Z,7.40
2017-10-24T20:53:58.300Z,5.40
2017-10-24T20:56:25.830Z,6.80
2017-10-24T20:58:53.561Z,8.83
2017-10-24T21:01:21.114Z,5.50
2017-10-24T21:03:48.618Z,5.10
2017-10-24T21:06:16.146Z,7.90
2017-10-24T21:08:43.647Z,7.00
2017-10-24T21:11:11.206Z,7.90
2017-10-24T21:13:38.764Z,7.87
2017-10-24T21:16:06.293Z,9.07
2017-10-24T21:18:33.803Z,7.40
2017-10-24T21:21:01.350Z,8.97
2017-10-24T21:23:28.896Z,9.50
2017-10-24T21:25:56.398Z,7.23
2017-10-24T21:28:23.937Z,10.90
2017-10-24T21:30:51.445Z,6.53
2017-10-24T21:33:19.001Z,6.87
2017-10-24T21:35:46.567Z,8.10
2017-10-24T21:38:14.071Z,8.80
2017-10-24T21:40:41.612Z,7.40
2017-10-24T21:43:09.171Z,9.90
2017-10-24T21:45:36.707Z,7.70
2017-10-24T21:48:04.236Z,6.57
2017-10-24T21:50:31.819Z,10.57
2017-10-24T21:52:59.339Z,10.00
2017-10-24T21:55:27.649Z,9.93
2017-10-24T21:57:55.154Z,9.53
2017-10-24T22:03:26.101Z,8.13
2017-10-24T22:05:53.666Z,7.03
2017-10-24T22:08:21.178Z,6.27
2017-10-24T22:10:48.726Z,7.47
2017-10-24T22:13:16.258Z,6.60
2017-10-24T22:15:43.770Z,7.80
2017-10-24T22:18:11.326Z,10.47
2017-10-24T22:20:38.858Z,7.40
2017-10-24T22:23:06.356Z,10.90
2017-10-24T22:25:33.899Z,6.80
2017-10-24T22:28:01.396Z,6.93
2017-10-24T22:30:28.955Z,7.87
2017-10-24T22:32:56.552Z,6.30
2017-10-24T22:35:24.057Z,9.00
2017-10-24T22:37:51.664Z,5.40
2017-10-24T22:40:19.175Z,6.47
2017-10-24T22:42:46.676Z,7.50
2017-10-24T22:45:14.225Z,9.00
2017-10-24T22:47:42.475Z,7.67
2017-10-24T22:50:10.006Z,7.30
2017-10-24T22:52:37.516Z,10.83
2017-10-24T22:55:05.797Z,6.90
2017-10-24T22:57:33.324Z,9.20
2017-10-24T23:00:00.826Z,6.30
2017-10-24T23:02:28.373Z,7.47
2017-10-24T23:04:56.671Z,6.40
2017-10-24T23:07:24.178Z,7.83
2017-10-24T23:09:51.670Z,8.53
2017-10-24T23:12:19.246Z,13.67
2017-10-24T23:14:47.547Z,6.30
2017-10-24T23:17:15.066Z,6.90
2017-10-24T23:19:42.576Z,7.80
2017-10-24T23:22:10.100Z,5.57
2017-10-24T23:24:37.611Z,7.37
2017-10-24T23:27:05.168Z,5.80
2017-10-24T23:29:32.695Z,10.80
2017-10-24T23:32:00.233Z,5.70
2017-10-24T23:34:27.735Z,4.83
2017-10-24T23:36:55.296Z,4.53
2017-10-24T23:39:22.788Z,6.47
2017-10-24T23:41:50.328Z,4.57
2017-10-24T23:44:17.815Z,4.90
2017-10-24T23:46:45.349Z,8.13
2017-10-24T23:49:12.877Z,8.83
2017-10-24T23:51:40.411Z,5.30
2017-10-24T23:54:07.916Z,5.70
2017-10-24T23:56:35.461Z,6.27
2017-10-24T23:59:03.036Z,5.27
